Time;durP1;ratioP1;P1;durP2;ratioP2;P2;SDS_P1;SDS_P2;PMS_P1;PMS_P2;Temp;Humidity;BMP_temperature;BMP_pressure;BME280_temperature;BME280_humidity;BME280_pressure;Samples;Min_cycle;Max_cycle;Signal;HPM_P1;HPM_P2
2023/12/03 00:08:26;;;;;;;5.40;5.00;;;19.40;36.00;;;;;;5066472;28;20485;-71
2023/12/03 00:10:52;;;;;;;5.73;5.10;;;19.40;36.00;;;;;;5053119;28;20913;-67
2023/12/03 00:13:17;;;;;;;6.70;4.90;;;19.40;36.00;;;;;;5061483;28;20228;-70
2023/12/03 00:15:43;;;;;;;6.53;5.87;;;19.40;35.80;;;;;;5066573;28;20251;-70
2023/12/03 00:18:09;;;;;;;6.70;5.63;;;19.40;35.80;;;;;;5082639;28;20350;-69
2023/12/03 00:20:34;;;;;;;6.27;5.67;;;19.40;35.80;;;;;;5064342;28;20192;-66
2023/12/03 00:23:00;;;;;;;5.33;4.93;;;19.40;35.90;;;;;;5081330;28;20192;-69
2023/12/03 00:26:17;;;;;;;6.03;5.53;;;19.40;35.80;;;;;;5079776;28;20239;-68
2023/12/03 00:29:34;;;;;;;8.00;5.87;;;19.40;35.80;;;;;;5082679;28;20436;-70
2023/12/03 00:32:50;;;;;;;6.30;5.70;;;19.40;35.90;;;;;;5082063;28;20437;-70
2023/12/03 00:36:06;;;;;;;9.63;5.80;;;19.40;36.00;;;;;;5084758;28;20428;-66
2023/12/03 00:39:22;;;;;;;5.30;4.90;;;19.40;35.90;;;;;;5081468;28;20486;-70
2023/12/03 00:42:37;;;;;;;6.50;6.00;;;19.40;35.90;;;;;;5078872;28;20521;-70
2023/12/03 00:45:53;;;;;;;6.10;5.60;;;19.40;36.00;;;;;;5085803;28;20432;-68
2023/12/03 00:49:09;;;;;;;6.00;5.60;;;19.40;35.90;;;;;;5082791;28;20408;-70
2023/12/03 00:52:25;;;;;;;6.70;5.73;;;19.40;36.00;;;;;;5083211;28;20433;-68
2023/12/03 00:55:41;;;;;;;6.00;5.50;;;19.40;36.00;;;;;;5081596;28;20890;-67
2023/12/03 00:58:58;;;;;;;7.63;5.43;;;19.40;36.00;;;;;;5083429;28;20499;-68
2023/12/03 01:02:14;;;;;;;5.23;4.93;;;19.40;36.00;;;;;;5079275;28;20451;-69
2023/12/03 01:05:29;;;;;;;6.87;6.27;;;19.40;36.10;;;;;;5086112;28;20794;-68
2023/12/03 08:09:20;;;;;;;3.60;3.40;;;19.20;35.90;;;;;;5070373;28;21314;-64
2023/12/03 08:11:45;;;;;;;5.40;3.13;;;19.20;35.90;;;;;;5039483;28;20448;-66
2023/12/03 08:14:11;;;;;;;3.27;2.97;;;19.20;35.90;;;;;;5067582;28;20441;-65
2023/12/03 08:16:36;;;;;;;3.30;3.07;;;19.20;35.90;;;;;;5074028;28;20214;-69
2023/12/03 08:19:02;;;;;;;3.10;2.90;;;19.30;36.00;;;;;;5083865;28;20834;-70
2023/12/03 08:21:28;;;;;;;3.17;2.97;;;19.30;35.90;;;;;;5074270;28;20196;-70
2023/12/03 08:23:53;;;;;;;2.90;2.70;;;19.30;35.90;;;;;;5075211;28;20218;-70
2023/12/03 08:26:19;;;;;;;3.53;3.23;;;19.30;35.90;;;;;;5080761;28;20621;-70
2023/12/03 08:28:44;;;;;;;3.30;3.10;;;19.30;35.90;;;;;;5081965;28;20252;-67
2023/12/03 08:31:10;;;;;;;2.80;2.60;;;19.30;35.90;;;;;;5080556;28;20181;-69
2023/12/03 08:33:35;;;;;;;4.07;3.70;;;19.30;35.90;;;;;;5080691;28;20668;-69
2023/12/03 08:36:01;;;;;;;3.00;2.80;;;19.30;35.80;;;;;;5080000;28;20176;-69
2023/12/03 08:38:27;;;;;;;3.20;3.00;;;19.30;35.90;;;;;;5075364;28;20181;-69
2023/12/03 08:40:53;;;;;;;3.00;2.80;;;19.30;35.80;;;;;;5075121;28;20234;-68
2023/12/03 08:43:18;;;;;;;3.10;2.90;;;19.30;36.00;;;;;;5083412;28;20192;-69
2023/12/03 08:45:44;;;;;;;3.20;3.00;;;19.30;35.80;;;;;;5085080;28;20311;-70
2023/12/03 08:48:09;;;;;;;3.53;3.10;;;19.30;35.80;;;;;;5083939;28;20184;-67
2023/12/03 08:50:35;;;;;;;3.17;2.97;;;19.30;35.80;;;;;;5088219;28;20193;-66
2023/12/03 08:53:01;;;;;;;2.97;2.77;;;19.30;35.80;;;;;;5087287;28;20699;-68
2023/12/03 08:55:26;;;;;;;2.60;2.40;;;19.30;35.80;;;;;;5089391;28;20222;-69
2023/12/03 08:57:52;;;;;;;2.70;2.50;;;19.30;35.80;;;;;;5086324;28;20208;-72
2023/12/03 09:00:18;;;;;;;2.90;2.70;;;19.30;35.80;;;;;;5085400;28;20224;-72
2023/12/03 09:02:44;;;;;;;3.00;2.70;;;19.30;35.80;;;;;;5084592;28;20177;-70
2023/12/03 09:05:10;;;;;;;3.10;2.90;;;19.30;35.80;;;;;;5078703;28;20292;-71
2023/12/03 09:07:36;;;;;;;2.93;2.73;;;19.30;35.80;;;;;;5083827;28;20874;-69
2023/12/03 09:50:43;;;;;;;6.77;4.40;;;19.30;35.90;;;;;;5062590;28;20484;-70
2023/12/03 09:53:11;;;;;;;16.67;4.13;;;19.30;36.00;;;;;;5047030;28;20540;-70
2023/12/03 09:55:41;;;;;;;19.37;4.03;;;19.30;36.00;;;;;;5038568;28;20524;-68
2023/12/03 09:58:09;;;;;;;11.37;3.60;;;19.30;36.00;;;;;;5056919;28;20851;-71
2023/12/03 10:00:37;;;;;;;9.53;3.97;;;19.30;36.00;;;;;;5057694;28;20442;-70
2023/12/03 10:03:04;;;;;;;11.80;4.60;;;19.30;36.10;;;;;;5053298;28;20434;-69
2023/12/03 10:05:30;;;;;;;8.87;5.30;;;19.30;36.10;;;;;;5052968;28;20437;-71
2023/12/03 10:07:57;;;;;;;7.43;3.80;;;19.30;36.10;;;;;;5047722;28;21432;-67
2023/12/03 10:10:29;;;;;;;10.67;3.07;;;19.30;36.10;;;;;;5037724;28;20806;-69
2023/12/03 10:12:55;;;;;;;12.93;3.37;;;19.30;36.10;;;;;;5069320;28;20435;-68
2023/12/03 10:15:21;;;;;;;8.30;3.43;;;19.40;36.20;;;;;;5057538;28;20432;-69
2023/12/03 10:17:48;;;;;;;12.23;4.13;;;19.40;36.20;;;;;;5063605;28;20988;-71
2023/12/03 10:20:22;;;;;;;9.70;3.20;;;19.40;36.30;;;;;;5048715;28;20774;-71
2023/12/03 10:22:49;;;;;;;10.80;3.00;;;19.40;36.30;;;;;;5050372;28;21106;-72
2023/12/03 10:25:35;;;;;;;9.30;3.63;;;19.40;36.40;;;;;;5036930;28;20733;-71
2023/12/03 10:28:06;;;;;;;6.40;3.10;;;19.40;36.40;;;;;;5053669;28;20551;-72
2023/12/03 10:30:32;;;;;;;8.37;3.67;;;19.40;36.40;;;;;;5031675;28;20449;-69
2023/12/03 10:32:58;;;;;;;6.83;2.80;;;19.40;36.40;;;;;;5046440;28;20516;-70
2023/12/03 10:35:31;;;;;;;3.70;2.83;;;19.40;36.50;;;;;;5048768;28;20501;-70
2023/12/03 10:37:57;;;;;;;4.53;2.73;;;19.40;36.50;;;;;;5041439;28;20469;-70
2023/12/03 10:40:23;;;;;;;5.00;3.27;;;19.40;36.50;;;;;;5058479;28;20443;-68
2023/12/03 10:42:48;;;;;;;6.60;2.73;;;19.40;36.40;;;;;;5060005;28;20233;-67
2023/12/03 10:45:15;;;;;;;6.90;3.37;;;19.40;36.40;;;;;;5049176;28;20313;-69
2023/12/03 10:47:43;;;;;;;5.60;2.83;;;19.40;36.40;;;;;;5047831;28;20335;-68
2023/12/03 10:50:11;;;;;;;7.13;2.90;;;19.40;36.50;;;;;;5055500;28;20451;-69
2023/12/03 10:52:38;;;;;;;6.57;2.73;;;19.40;36.50;;;;;;5039867;28;20477;-69
2023/12/03 10:55:05;;;;;;;5.50;3.53;;;19.40;36.50;;;;;;5062273;28;20581;-67
2023/12/03 10:57:32;;;;;;;4.60;2.03;;;19.40;36.60;;;;;;5040988;28;20458;-71
2023/12/03 11:00:09;;;;;;;3.47;2.47;;;19.40;36.60;;;;;;5054410;28;20582;-71
2023/12/03 11:02:44;;;;;;;7.73;2.60;;;19.40;36.60;;;;;;5054279;28;20470;-69
2023/12/03 11:05:22;;;;;;;3.10;2.20;;;19.40;36.60;;;;;;5055537;28;20440;-68
2023/12/03 11:07:48;;;;;;;3.70;2.57;;;19.40;36.70;;;;;;5066508;28;20437;-71
2023/12/03 11:10:14;;;;;;;2.80;2.20;;;19.40;36.70;;;;;;5031576;28;20432;-73
2023/12/03 11:12:40;;;;;;;7.17;2.93;;;19.40;36.60;;;;;;5040310;28;21378;-68
2023/12/03 11:15:08;;;;;;;5.60;2.70;;;19.40;36.70;;;;;;5037303;28;20665;-67
2023/12/03 11:17:41;;;;;;;8.23;3.27;;;19.40;36.60;;;;;;5069475;28;20235;-69
2023/12/03 11:20:09;;;;;;;5.57;2.73;;;19.40;36.60;;;;;;5071707;28;20530;-69
2023/12/03 11:22:40;;;;;;;2.40;2.20;;;19.40;36.60;;;;;;5066813;28;20448;-69
2023/12/03 11:25:31;;;;;;;5.23;3.20;;;19.40;36.60;;;;;;5061683;28;20633;-66
2023/12/03 11:27:57;;;;;;;3.90;2.40;;;19.40;36.60;;;;;;5031782;28;20438;-69
2023/12/03 11:30:42;;;;;;;4.40;2.40;;;19.40;36.50;;;;;;5052615;28;20554;-69
2023/12/03 11:33:14;;;;;;;4.67;2.90;;;19.40;36.50;;;;;;5055359;28;20468;-66
2023/12/03 11:35:42;;;;;;;2.87;2.53;;;19.40;36.50;;;;;;5049220;28;20466;-68
2023/12/03 11:38:14;;;;;;;3.60;2.20;;;19.40;36.50;;;;;;5047966;28;20457;-68
2023/12/03 11:40:40;;;;;;;3.60;3.07;;;19.40;36.60;;;;;;5057976;28;20467;-65
2023/12/03 11:43:25;;;;;;;2.73;2.37;;;19.40;36.50;;;;;;5054733;28;21019;-67
2023/12/03 11:45:51;;;;;;;2.90;2.10;;;19.40;36.50;;;;;;5046919;28;20236;-71
2023/12/03 11:48:17;;;;;;;2.87;2.20;;;19.40;36.60;;;;;;5031649;28;20428;-66
2023/12/03 11:50:45;;;;;;;4.63;2.63;;;19.40;36.60;;;;;;5052952;28;20525;-72
2023/12/03 11:53:19;;;;;;;2.90;2.43;;;19.40;36.60;;;;;;5065541;28;20938;-74
2023/12/03 11:55:49;;;;;;;2.63;2.43;;;19.40;36.60;;;;;;5066769;28;20464;-74
2023/12/03 11:58:15;;;;;;;2.60;2.33;;;19.40;36.50;;;;;;5055670;28;20416;-70
2023/12/03 12:00:41;;;;;;;3.63;2.00;;;19.40;36.50;;;;;;5043585;28;20477;-73
2023/12/03 12:03:08;;;;;;;3.77;2.57;;;19.40;36.50;;;;;;5052936;28;20425;-69
2023/12/03 12:05:42;;;;;;;4.53;2.03;;;19.40;36.50;;;;;;5039583;28;20242;-68
2023/12/03 12:08:08;;;;;;;2.20;2.00;;;19.30;36.50;;;;;;5046906;28;20469;-69
2023/12/03 12:10:34;;;;;;;2.63;2.23;;;19.40;36.50;;;;;;5055017;28;20462;-67
2023/12/03 12:13:01;;;;;;;2.70;2.30;;;19.30;36.40;;;;;;5026239;28;20322;-69
2023/12/03 12:15:26;;;;;;;2.50;2.30;;;19.30;36.30;;;;;;5049244;28;21100;-71
2023/12/03 12:17:52;;;;;;;2.30;2.20;;;19.30;36.30;;;;;;5057213;28;20441;-69
2023/12/03 12:20:27;;;;;;;2.97;2.13;;;19.30;36.30;;;;;;5047501;28;20643;-64
2023/12/03 12:22:54;;;;;;;2.43;2.23;;;19.30;36.30;;;;;;5049108;28;20279;-69
2023/12/03 12:25:21;;;;;;;6.43;2.13;;;19.30;36.30;;;;;;5039775;28;20524;-69
2023/12/03 12:27:48;;;;;;;4.20;2.83;;;19.30;36.80;;;;;;5062295;28;20460;-72
2023/12/03 12:30:15;;;;;;;3.27;2.40;;;19.30;36.30;;;;;;5058854;28;20458;-70
2023/12/03 12:32:41;;;;;;;2.20;2.00;;;19.30;36.30;;;;;;5050255;28;21058;-69
2023/12/03 12:35:08;;;;;;;2.23;2.03;;;19.30;36.30;;;;;;5054694;28;21290;-68
2023/12/03 12:37:34;;;;;;;2.27;2.07;;;19.30;36.30;;;;;;5037131;28;20258;-71
2023/12/03 12:40:13;;;;;;;2.90;2.70;;;19.30;36.30;;;;;;5055875;28;20425;-70
2023/12/03 12:42:42;;;;;;;2.10;2.00;;;19.30;36.30;;;;;;5050895;28;20430;-69
2023/12/03 12:45:26;;;;;;;2.40;2.20;;;19.30;36.30;;;;;;5050854;28;21189;-71
2023/12/03 12:47:52;;;;;;;2.70;2.50;;;19.30;36.30;;;;;;5035373;28;20907;-72
2023/12/03 12:50:18;;;;;;;2.50;2.40;;;19.30;36.30;;;;;;5056260;28;20433;-72
2023/12/03 12:52:56;;;;;;;2.17;1.90;;;19.30;36.30;;;;;;5053046;28;20270;-71
2023/12/03 12:55:29;;;;;;;2.73;2.40;;;19.30;36.30;;;;;;5055558;28;20442;-70
2023/12/03 12:57:55;;;;;;;2.17;2.07;;;19.20;36.20;;;;;;5049530;28;20518;-66
2023/12/03 13:00:21;;;;;;;2.90;1.80;;;19.30;36.30;;;;;;5054656;28;20497;-66
2023/12/03 13:02:47;;;;;;;2.37;2.17;;;19.30;36.30;;;;;;5042636;28;20555;-63
2023/12/03 13:05:13;;;;;;;2.13;1.93;;;19.30;36.30;;;;;;5034759;28;20591;-63
2023/12/03 13:07:39;;;;;;;2.93;2.17;;;19.30;36.30;;;;;;5054388;28;20226;-64
2023/12/03 13:10:05;;;;;;;3.10;1.90;;;19.30;36.30;;;;;;5036014;28;20500;-66
2023/12/03 13:12:31;;;;;;;3.20;2.10;;;19.30;36.20;;;;;;5056898;28;20226;-66
2023/12/03 13:14:56;;;;;;;1.97;1.87;;;19.30;36.20;;;;;;5058734;28;20425;-66
2023/12/03 13:17:22;;;;;;;2.63;2.47;;;19.30;36.20;;;;;;5060066;28;20631;-69
2023/12/03 13:19:48;;;;;;;2.50;2.30;;;19.30;36.10;;;;;;5068056;28;20235;-70
2023/12/03 13:22:13;;;;;;;2.40;2.20;;;19.30;36.20;;;;;;5067737;28;20631;-66
2023/12/03 13:24:39;;;;;;;2.73;2.53;;;19.30;36.20;;;;;;5064733;28;23336;-68
2023/12/03 13:27:06;;;;;;;3.23;2.07;;;19.30;36.20;;;;;;5061081;28;20339;-70
2023/12/03 13:29:32;;;;;;;2.40;2.20;;;19.30;36.20;;;;;;5061031;28;20233;-71
2023/12/03 13:31:57;;;;;;;1.90;1.80;;;19.30;36.20;;;;;;5066958;28;20436;-70
2023/12/03 13:34:23;;;;;;;2.50;2.30;;;19.30;36.20;;;;;;5069652;28;20314;-69
2023/12/03 13:36:49;;;;;;;4.83;2.17;;;19.30;36.20;;;;;;5061546;28;20244;-66
2023/12/03 13:39:15;;;;;;;2.00;1.90;;;19.30;36.20;;;;;;5047924;28;20324;-71
2023/12/03 13:41:42;;;;;;;2.63;2.00;;;19.30;36.20;;;;;;5057876;28;20546;-68
2023/12/03 13:44:08;;;;;;;2.90;2.07;;;19.30;36.20;;;;;;5066053;28;20456;-64
2023/12/03 13:46:34;;;;;;;2.87;2.23;;;19.30;36.30;;;;;;5065398;28;20436;-67
2023/12/03 13:48:59;;;;;;;2.63;1.87;;;19.30;36.30;;;;;;5057769;28;20836;-72
2023/12/03 13:51:27;;;;;;;3.10;2.20;;;19.30;36.30;;;;;;5061913;28;20305;-70
2023/12/03 13:53:52;;;;;;;2.90;2.03;;;19.30;36.30;;;;;;5064394;28;20980;-72
2023/12/03 13:56:18;;;;;;;2.47;2.27;;;19.30;36.30;;;;;;5055842;28;20431;-65
2023/12/03 13:58:44;;;;;;;2.20;1.83;;;19.20;36.20;;;;;;5067694;28;20727;-68
2023/12/03 14:01:09;;;;;;;2.80;2.60;;;19.20;36.20;;;;;;5071404;28;20667;-68
2023/12/03 14:03:35;;;;;;;2.27;1.90;;;19.30;36.30;;;;;;5061699;28;20248;-71
2023/12/03 14:06:03;;;;;;;2.57;2.37;;;19.30;36.40;;;;;;5062560;28;20256;-71
2023/12/03 14:08:28;;;;;;;9.30;2.17;;;19.20;36.30;;;;;;5060474;28;20296;-65
2023/12/03 14:10:54;;;;;;;1.90;1.80;;;19.30;36.50;;;;;;5049790;28;20503;-68
2023/12/03 14:13:22;;;;;;;1.80;1.70;;;19.30;36.50;;;;;;5063926;28;20237;-71
2023/12/03 14:15:47;;;;;;;2.73;1.80;;;19.20;36.30;;;;;;5067011;28;20696;-70
2023/12/03 14:18:13;;;;;;;2.40;2.00;;;19.20;36.30;;;;;;5051039;28;20482;-68
2023/12/03 14:20:39;;;;;;;2.77;2.57;;;19.20;36.40;;;;;;5064465;28;20348;-65
2023/12/03 14:23:04;;;;;;;2.80;2.13;;;19.20;36.30;;;;;;5062858;28;20306;-70
2023/12/03 14:25:30;;;;;;;2.27;2.17;;;19.20;36.30;;;;;;5064689;28;20252;-73
2023/12/03 14:27:55;;;;;;;1.97;1.87;;;19.20;36.40;;;;;;5073527;28;20212;-73
2023/12/03 14:30:21;;;;;;;2.80;2.60;;;19.20;36.40;;;;;;5076630;28;20231;-70
2023/12/03 14:32:46;;;;;;;2.50;2.20;;;19.20;36.40;;;;;;5073803;28;20221;-72
2023/12/03 14:35:12;;;;;;;2.47;2.27;;;19.20;36.40;;;;;;5075939;28;20224;-72
2023/12/03 14:37:38;;;;;;;2.07;1.60;;;19.20;36.50;;;;;;5076423;28;20628;-70
2023/12/03 14:40:05;;;;;;;7.60;2.50;;;19.20;36.50;;;;;;5075821;28;20435;-69
2023/12/03 14:42:30;;;;;;;3.70;2.30;;;19.20;36.50;;;;;;5075112;28;20644;-66
2023/12/03 14:44:56;;;;;;;5.53;2.03;;;19.20;36.50;;;;;;5076413;28;20492;-70
2023/12/03 14:47:21;;;;;;;2.07;1.90;;;19.20;36.50;;;;;;5075353;28;20576;-72
2023/12/03 14:49:47;;;;;;;1.97;1.87;;;19.20;36.50;;;;;;5078492;28;20706;-71
2023/12/03 14:52:12;;;;;;;3.03;2.60;;;19.20;36.50;;;;;;5076974;28;20236;-67
2023/12/03 14:54:40;;;;;;;1.93;1.83;;;19.20;36.60;;;;;;5059289;28;20232;-71
2023/12/03 14:57:05;;;;;;;2.57;2.23;;;19.20;36.60;;;;;;5062514;28;20343;-73
2023/12/03 14:59:31;;;;;;;2.77;2.20;;;19.20;36.60;;;;;;5073625;28;20453;-72
2023/12/03 15:01:56;;;;;;;1.93;1.83;;;19.20;36.60;;;;;;5057704;28;20317;-69
2023/12/03 15:04:23;;;;;;;2.40;2.07;;;19.20;36.60;;;;;;5058939;28;20233;-73
2023/12/03 15:06:49;;;;;;;2.10;2.00;;;19.20;36.60;;;;;;5063017;28;20593;-72
2023/12/03 15:09:15;;;;;;;2.40;2.20;;;19.20;36.70;;;;;;5043248;28;20504;-72
2023/12/03 15:11:40;;;;;;;2.03;1.93;;;19.20;36.70;;;;;;5057035;28;20466;-65
2023/12/03 15:14:06;;;;;;;2.33;2.13;;;19.20;36.70;;;;;;5058180;28;20193;-69
2023/12/03 15:16:32;;;;;;;3.40;2.33;;;19.20;36.70;;;;;;5056092;28;20279;-71
2023/12/03 15:18:58;;;;;;;3.70;2.27;;;19.20;36.70;;;;;;5063237;28;20174;-69
2023/12/03 15:21:26;;;;;;;5.10;1.97;;;19.20;36.80;;;;;;5061486;28;21136;-72
2023/12/03 15:23:51;;;;;;;4.03;2.47;;;19.20;36.80;;;;;;5062593;28;20220;-68
2023/12/03 15:26:17;;;;;;;3.13;1.80;;;19.20;36.80;;;;;;5062553;28;20437;-73
2023/12/03 15:28:43;;;;;;;5.20;2.23;;;19.20;36.70;;;;;;5058310;28;20282;-75
2023/12/03 15:31:09;;;;;;;3.60;1.90;;;19.20;36.80;;;;;;5044316;28;20232;-69
2023/12/03 15:33:35;;;;;;;3.47;2.27;;;19.20;36.80;;;;;;5063297;28;20336;-72
2023/12/03 15:36:00;;;;;;;2.20;1.90;;;19.20;36.80;;;;;;5054426;28;20904;-70
2023/12/03 15:38:26;;;;;;;7.20;2.70;;;19.20;36.90;;;;;;5043824;28;20572;-75
2023/12/03 15:40:53;;;;;;;2.30;2.10;;;19.30;37.00;;;;;;5061636;28;20307;-74
2023/12/03 15:43:19;;;;;;;2.60;2.40;;;19.30;37.00;;;;;;5044305;28;20220;-71
2023/12/03 15:45:45;;;;;;;2.73;2.57;;;19.30;37.00;;;;;;5063895;28;21063;-76
2023/12/03 15:48:12;;;;;;;2.73;2.10;;;19.30;37.00;;;;;;5055671;28;20239;-74
2023/12/03 15:50:39;;;;;;;2.50;2.20;;;19.30;37.00;;;;;;5067034;28;20251;-74
2023/12/03 15:53:05;;;;;;;2.37;1.93;;;19.30;37.00;;;;;;5041743;28;20459;-68
2023/12/03 15:55:31;;;;;;;2.00;1.90;;;19.30;37.80;;;;;;5063618;28;20436;-68
2023/12/03 15:57:56;;;;;;;1.77;1.67;;;19.30;37.00;;;;;;5064957;28;20775;-71
2023/12/03 16:00:22;;;;;;;3.33;2.30;;;19.30;37.00;;;;;;5056470;28;20271;-76
2023/12/03 16:02:48;;;;;;;3.07;2.07;;;19.40;37.10;;;;;;5062618;28;20254;-77
2023/12/03 16:05:13;;;;;;;3.30;1.83;;;19.40;37.10;;;;;;5058217;28;20311;-72
2023/12/03 16:07:42;;;;;;;4.50;2.50;;;19.40;37.10;;;;;;5058044;28;20691;-69
2023/12/03 16:10:08;;;;;;;2.90;2.30;;;19.40;37.10;;;;;;5056762;28;20227;-69
2023/12/03 16:12:34;;;;;;;3.50;2.10;;;19.40;37.10;;;;;;5065819;28;20512;-67
2023/12/03 16:15:00;;;;;;;4.70;2.30;;;19.40;37.10;;;;;;5073113;28;20430;-67
2023/12/03 16:17:25;;;;;;;3.00;2.10;;;19.40;37.10;;;;;;5058000;28;20233;-75
2023/12/03 16:19:51;;;;;;;3.00;2.20;;;19.40;37.10;;;;;;5067217;28;20449;-72
2023/12/03 16:22:16;;;;;;;3.00;2.50;;;19.40;37.10;;;;;;5062548;28;20218;-72
2023/12/03 16:24:42;;;;;;;7.43;2.67;;;19.40;37.00;;;;;;5059412;28;20237;-69
2023/12/03 16:27:08;;;;;;;5.47;2.60;;;19.40;36.80;;;;;;5055547;28;21013;-68
2023/12/03 16:29:33;;;;;;;7.63;2.73;;;19.50;37.00;;;;;;5035738;28;20229;-71
2023/12/03 16:32:01;;;;;;;4.53;2.07;;;19.40;36.90;;;;;;5064156;28;20233;-71
2023/12/03 16:34:28;;;;;;;4.63;2.20;;;19.40;37.00;;;;;;5051650;28;20291;-71
2023/12/03 16:36:54;;;;;;;4.87;2.40;;;19.40;37.00;;;;;;5069323;28;20420;-73
2023/12/03 16:39:20;;;;;;;2.60;1.90;;;19.40;37.00;;;;;;5050652;28;20516;-70
2023/12/03 16:41:45;;;;;;;2.83;2.63;;;19.40;37.10;;;;;;5070827;28;20217;-71
2023/12/03 16:44:11;;;;;;;4.87;2.60;;;19.40;37.10;;;;;;5047373;28;20348;-68
2023/12/03 16:46:37;;;;;;;2.13;1.97;;;19.40;37.00;;;;;;5065457;28;20278;-70
2023/12/03 16:49:03;;;;;;;2.93;2.60;;;19.40;37.00;;;;;;5064972;28;20569;-71
2023/12/03 16:51:32;;;;;;;2.63;2.43;;;19.40;37.10;;;;;;5061594;28;20241;-70
2023/12/03 16:53:58;;;;;;;4.50;2.30;;;19.40;37.10;;;;;;5061397;28;20458;-71
2023/12/03 16:56:24;;;;;;;2.37;2.17;;;19.40;37.10;;;;;;5058100;28;20514;-72
2023/12/03 16:58:49;;;;;;;4.77;2.37;;;19.50;37.10;;;;;;5064676;28;20412;-68
2023/12/03 17:01:15;;;;;;;2.17;2.00;;;19.40;37.00;;;;;;5065454;28;20215;-68
2023/12/03 17:03:41;;;;;;;2.30;1.77;;;19.40;37.00;;;;;;5070760;28;20224;-66
2023/12/03 17:06:07;;;;;;;3.60;2.40;;;19.50;37.00;;;;;;5060196;28;20305;-66
2023/12/03 17:08:32;;;;;;;4.50;2.37;;;19.40;37.00;;;;;;5058289;28;20292;-66
2023/12/03 17:10:58;;;;;;;2.63;2.23;;;19.50;37.00;;;;;;5064809;28;20631;-68
2023/12/03 17:13:24;;;;;;;2.93;2.63;;;19.50;37.10;;;;;;5053604;28;20236;-65
2023/12/03 17:15:51;;;;;;;2.70;2.40;;;19.40;37.00;;;;;;5062247;28;20233;-67
2023/12/03 17:18:17;;;;;;;5.77;2.67;;;19.50;37.10;;;;;;5052064;28;20611;-66
2023/12/03 17:20:43;;;;;;;3.23;2.93;;;19.50;37.10;;;;;;5069468;28;20493;-69
2023/12/03 17:23:09;;;;;;;3.87;2.63;;;19.40;37.10;;;;;;5070501;28;20232;-68
2023/12/03 17:25:35;;;;;;;4.30;2.07;;;19.40;37.10;;;;;;5061507;28;20473;-67
2023/12/03 17:28:02;;;;;;;4.83;2.53;;;19.40;37.20;;;;;;5053759;28;20440;-65
2023/12/03 17:30:27;;;;;;;3.43;2.33;;;19.50;37.20;;;;;;5059892;28;20220;-68
2023/12/03 17:32:54;;;;;;;2.33;2.13;;;19.40;37.20;;;;;;5053870;28;20460;-68
2023/12/03 17:35:21;;;;;;;3.03;2.33;;;19.40;37.20;;;;;;5058941;28;20237;-68
2023/12/03 17:37:47;;;;;;;3.10;2.77;;;19.40;37.30;;;;;;5068387;28;20760;-70
2023/12/03 17:40:13;;;;;;;3.87;2.50;;;19.40;37.40;;;;;;5038969;28;20495;-68
2023/12/03 17:42:41;;;;;;;3.43;3.10;;;19.40;37.40;;;;;;5060966;28;20576;-69
2023/12/03 17:45:10;;;;;;;4.10;2.37;;;19.40;37.40;;;;;;5067821;28;20539;-66
2023/12/03 17:47:36;;;;;;;2.73;2.17;;;19.40;37.50;;;;;;5064460;28;20454;-67
2023/12/03 17:50:03;;;;;;;2.60;2.33;;;19.40;37.50;;;;;;5051758;28;20454;-66
2023/12/03 17:52:28;;;;;;;2.83;2.60;;;19.40;37.60;;;;;;5066137;28;20252;-67
2023/12/03 17:54:54;;;;;;;2.30;1.93;;;19.40;37.60;;;;;;5058757;28;20424;-67
2023/12/03 17:57:21;;;;;;;2.70;2.50;;;19.40;37.60;;;;;;5062069;28;20236;-69
2023/12/03 17:59:47;;;;;;;2.87;2.67;;;19.40;37.60;;;;;;5061361;28;20528;-69
2023/12/03 18:02:12;;;;;;;2.73;2.23;;;19.40;37.70;;;;;;5061109;28;20427;-70
2023/12/03 18:04:38;;;;;;;2.30;2.20;;;19.40;37.70;;;;;;5065377;28;20676;-69
2023/12/03 18:07:07;;;;;;;4.87;2.10;;;19.40;37.70;;;;;;5056242;28;20413;-69
2023/12/03 18:09:34;;;;;;;2.60;2.40;;;19.40;37.80;;;;;;5064062;28;20224;-69
2023/12/03 18:11:59;;;;;;;2.57;2.37;;;19.40;37.80;;;;;;5062755;28;20465;-69
2023/12/03 18:14:25;;;;;;;2.87;2.30;;;19.30;37.80;;;;;;5063340;28;20449;-69
2023/12/03 18:16:51;;;;;;;3.60;3.30;;;19.40;37.80;;;;;;5062797;28;20219;-70
2023/12/03 18:19:17;;;;;;;3.80;2.90;;;19.30;37.80;;;;;;5063029;28;20209;-69
2023/12/03 18:21:43;;;;;;;2.60;2.40;;;19.30;37.80;;;;;;5063807;28;20230;-68
2023/12/03 18:24:09;;;;;;;3.43;2.70;;;19.40;37.80;;;;;;5052975;28;20430;-69
2023/12/03 18:26:38;;;;;;;2.83;2.63;;;19.30;37.80;;;;;;5058244;28;20220;-70
2023/12/03 18:29:05;;;;;;;2.70;2.50;;;19.40;38.00;;;;;;5061708;28;20278;-69
2023/12/03 18:31:30;;;;;;;3.10;2.90;;;19.30;37.80;;;;;;5069775;28;20841;-69
2023/12/03 18:33:56;;;;;;;2.93;2.70;;;19.30;37.80;;;;;;5060955;28;20981;-70
2023/12/03 18:36:21;;;;;;;2.50;2.30;;;19.30;37.80;;;;;;5064260;28;21164;-70
2023/12/03 18:38:47;;;;;;;4.87;3.70;;;19.30;37.90;;;;;;5060971;28;20223;-69
2023/12/03 18:41:17;;;;;;;2.23;2.03;;;19.30;37.70;;;;;;5059339;28;20227;-67
2023/12/03 18:43:44;;;;;;;3.30;2.43;;;19.30;37.60;;;;;;5061893;28;20293;-67
2023/12/03 18:46:11;;;;;;;3.13;2.37;;;19.40;37.60;;;;;;5063115;28;20995;-69
2023/12/03 18:48:36;;;;;;;6.37;2.80;;;19.30;37.70;;;;;;5062160;28;20463;-67
2023/12/03 18:51:02;;;;;;;2.37;2.17;;;19.30;37.70;;;;;;5064681;28;20452;-66
2023/12/03 18:53:28;;;;;;;3.50;3.30;;;19.30;37.70;;;;;;5066503;28;20836;-68
2023/12/03 18:55:55;;;;;;;3.10;2.83;;;19.30;37.70;;;;;;5057018;28;20359;-67
2023/12/03 18:58:21;;;;;;;2.57;2.37;;;19.30;37.60;;;;;;5059323;28;20517;-68
2023/12/03 19:00:47;;;;;;;3.13;2.93;;;19.30;37.60;;;;;;5060856;28;20458;-66
2023/12/03 19:03:13;;;;;;;6.13;2.63;;;19.30;37.60;;;;;;5069472;28;20447;-69
2023/12/03 19:05:38;;;;;;;3.13;2.87;;;19.30;37.60;;;;;;5067379;28;20243;-67
2023/12/03 19:08:04;;;;;;;2.23;1.97;;;19.30;37.70;;;;;;5063602;28;20228;-67
2023/12/03 19:10:37;;;;;;;2.20;2.10;;;19.30;37.60;;;;;;5055728;28;20229;-66
2023/12/03 19:13:06;;;;;;;2.30;2.20;;;19.30;37.70;;;;;;5060620;28;20232;-68
2023/12/03 19:15:33;;;;;;;2.30;2.20;;;19.30;37.70;;;;;;5059660;28;20441;-68
2023/12/03 19:17:59;;;;;;;3.03;2.63;;;19.30;37.70;;;;;;5071377;28;21376;-70
2023/12/03 19:20:25;;;;;;;2.97;2.20;;;19.30;37.70;;;;;;5064889;28;20933;-68
2023/12/03 19:22:51;;;;;;;2.40;2.30;;;19.30;37.70;;;;;;5060961;28;20466;-68
2023/12/03 19:25:17;;;;;;;3.07;2.87;;;19.30;37.70;;;;;;5064638;28;20240;-67
2023/12/03 19:27:43;;;;;;;2.63;2.10;;;19.30;37.70;;;;;;5060071;28;22186;-69
2023/12/03 19:30:09;;;;;;;2.43;2.23;;;19.30;37.70;;;;;;5067143;28;21045;-67
2023/12/03 19:32:37;;;;;;;2.30;2.20;;;19.30;37.70;;;;;;5038674;28;20307;-66
2023/12/03 19:35:03;;;;;;;3.47;2.30;;;19.30;37.70;;;;;;5064274;28;20471;-66
2023/12/03 19:37:29;;;;;;;1.93;1.83;;;19.30;37.70;;;;;;5056876;28;21108;-66
2023/12/03 19:39:55;;;;;;;2.77;2.57;;;19.30;37.80;;;;;;5038317;28;20462;-65
2023/12/03 19:42:21;;;;;;;2.10;2.00;;;19.30;37.80;;;;;;5058162;28;20228;-66
2023/12/03 19:44:48;;;;;;;2.10;2.00;;;19.30;37.80;;;;;;5053072;28;20258;-66
2023/12/03 19:47:13;;;;;;;2.17;2.07;;;19.20;37.70;;;;;;5057672;28;21268;-66
2023/12/03 19:49:39;;;;;;;2.23;2.10;;;19.20;37.70;;;;;;5061888;28;20897;-66
2023/12/03 19:52:05;;;;;;;2.50;2.30;;;19.20;37.70;;;;;;5054825;28;20264;-66
2023/12/03 19:54:31;;;;;;;3.37;2.13;;;19.20;37.70;;;;;;5070585;28;20696;-66
2023/12/03 19:56:59;;;;;;;2.03;1.93;;;19.20;37.70;;;;;;5049249;28;20450;-66
2023/12/03 19:59:24;;;;;;;2.43;2.33;;;19.20;37.70;;;;;;5065360;28;20260;-66
2023/12/03 20:01:50;;;;;;;3.33;3.10;;;19.20;37.70;;;;;;5065559;28;21142;-66
2023/12/03 20:04:16;;;;;;;2.03;1.93;;;19.20;37.70;;;;;;5048290;28;20221;-66
2023/12/03 20:06:41;;;;;;;2.50;2.40;;;19.20;37.70;;;;;;5029266;28;20229;-66
2023/12/03 20:09:07;;;;;;;2.27;2.17;;;19.20;37.70;;;;;;5033322;28;20220;-66
2023/12/03 20:11:33;;;;;;;2.30;2.20;;;19.20;37.70;;;;;;5047009;28;20580;-66
2023/12/03 20:13:59;;;;;;;2.70;2.50;;;19.20;37.70;;;;;;5061866;28;20462;-66
2023/12/03 20:16:25;;;;;;;2.60;2.40;;;19.20;37.70;;;;;;5031042;28;20222;-66
2023/12/03 20:18:51;;;;;;;3.07;2.77;;;19.20;37.70;;;;;;5035669;28;20213;-67
2023/12/03 20:21:17;;;;;;;2.40;2.27;;;19.20;37.70;;;;;;5052211;28;20221;-66
2023/12/03 20:23:45;;;;;;;2.80;2.60;;;19.20;37.80;;;;;;5048408;28;20452;-66
2023/12/03 20:26:10;;;;;;;2.30;2.10;;;19.20;38.50;;;;;;5056099;28;20232;-66
2023/12/03 20:28:36;;;;;;;2.27;2.17;;;19.20;37.70;;;;;;5054525;28;20441;-66
2023/12/03 20:31:03;;;;;;;2.20;2.10;;;19.20;37.80;;;;;;5063084;28;20290;-66
2023/12/03 20:33:29;;;;;;;2.27;2.17;;;19.20;37.80;;;;;;5058215;28;20963;-66
2023/12/03 20:35:55;;;;;;;2.57;2.37;;;19.20;38.60;;;;;;5067799;28;20446;-66
2023/12/03 20:38:21;;;;;;;2.73;2.53;;;19.20;37.80;;;;;;5066987;28;20219;-66
2023/12/03 20:40:47;;;;;;;2.23;2.13;;;19.20;37.80;;;;;;5054638;28;20306;-66
2023/12/03 20:43:13;;;;;;;2.50;2.30;;;19.20;37.80;;;;;;5044312;28;20549;-66